sensor_id;sensor_type;location;lat;lon;timestamp;P1;P2;P0
73917;PMS5003;63639;52.280;5.162;2023-02-28T00:00:10;3;3;
73917;PMS5003;63639;52.280;5.162;2023-02-28T00:02:39;4;4;
73917;PMS5003;63639;52.280;5.162;2023-02-28T00:05:08;3;3;
73917;PMS5003;63639;52.280;5.162;2023-02-28T00:07:37;5;4;
73917;PMS5003;63639;52.280;5.162;2023-02-28T00:10:04;4;4;
73917;PMS5003;63639;52.280;5.162;2023-02-28T00:12:33;5;5;
73917;PMS5003;63639;52.280;5.162;2023-02-28T00:15:00;3;3;
73917;PMS5003;63639;52.280;5.162;2023-02-28T00:17:27;5;5;
73917;PMS5003;63639;52.280;5.162;2023-02-28T00:19:54;4;4;
73917;PMS5003;63639;52.280;5.162;2023-02-28T00:22:26;2;2;
73917;PMS5003;63639;52.280;5.162;2023-02-28T00:24:54;5;4;
73917;PMS5003;63639;52.280;5.162;2023-02-28T00:27:21;3;3;
73917;PMS5003;63639;52.280;5.162;2023-02-28T00:29:48;7;5;
73917;PMS5003;63639;52.280;5.162;2023-02-28T00:32:15;4;4;
73917;PMS5003;63639;52.280;5.162;2023-02-28T00:34:42;5;4;
73917;PMS5003;63639;52.280;5.162;2023-02-28T00:37:09;8;5;
73917;PMS5003;63639;52.280;5.162;2023-02-28T00:39:37;5;5;
73917;PMS5003;63639;52.280;5.162;2023-02-28T00:42:04;7;4;
73917;PMS5003;63639;52.280;5.162;2023-02-28T00:44:32;4;4;
73917;PMS5003;63639;52.280;5.162;2023-02-28T00:46:59;6;5;
73917;PMS5003;63639;52.280;5.162;2023-02-28T00:49:27;5;4;
73917;PMS5003;63639;52.280;5.162;2023-02-28T00:51:54;4;4;
73917;PMS5003;63639;52.280;5.162;2023-02-28T00:54:22;5;4;
73917;PMS5003;63639;52.280;5.162;2023-02-28T00:56:50;5;5;
73917;PMS5003;63639;52.280;5.162;2023-02-28T00:59:17;8;4;
73917;PMS5003;63639;52.280;5.162;2023-02-28T01:01:45;4;4;
73917;PMS5003;63639;52.280;5.162;2023-02-28T01:04:12;7;4;
73917;PMS5003;63639;52.280;5.162;2023-02-28T01:06:40;7;5;
73917;PMS5003;63639;52.280;5.162;2023-02-28T01:09:07;3;3;
73917;PMS5003;63639;52.280;5.162;2023-02-28T01:11:34;5;5;
73917;PMS5003;63639;52.280;5.162;2023-02-28T01:14:03;4;4;
73917;PMS5003;63639;52.280;5.162;2023-02-28T01:16:30;8;5;
73917;PMS5003;63639;52.280;5.162;2023-02-28T01:18:57;5;5;
73917;PMS5003;63639;52.280;5.162;2023-02-28T01:21:24;7;7;
73917;PMS5003;63639;52.280;5.162;2023-02-28T01:23:51;11;8;
73917;PMS5003;63639;52.280;5.162;2023-02-28T01:26:19;9;7;
73917;PMS5003;63639;52.280;5.162;2023-02-28T01:28:47;5;5;
73917;PMS5003;63639;52.280;5.162;2023-02-28T01:31:15;8;7;
73917;PMS5003;63639;52.280;5.162;2023-02-28T01:33:42;7;7;
73917;PMS5003;63639;52.280;5.162;2023-02-28T01:36:10;9;9;
73917;PMS5003;63639;52.280;5.162;2023-02-28T01:38:39;7;5;
73917;PMS5003;63639;52.280;5.162;2023-02-28T01:41:06;8;8;
73917;PMS5003;63639;52.280;5.162;2023-02-28T01:43:52;8;5;
73917;PMS5003;63639;52.280;5.162;2023-02-28T01:46:22;5;5;
73917;PMS5003;63639;52.280;5.162;2023-02-28T01:48:50;7;5;
73917;PMS5003;63639;52.280;5.162;2023-02-28T01:51:21;8;8;
73917;PMS5003;63639;52.280;5.162;2023-02-28T01:53:54;9;8;
73917;PMS5003;63639;52.280;5.162;2023-02-28T01:56:26;9;8;
73917;PMS5003;63639;52.280;5.162;2023-02-28T01:58:55;10;8;
73917;PMS5003;63639;52.280;5.162;2023-02-28T02:01:23;7;7;
73917;PMS5003;63639;52.280;5.162;2023-02-28T02:03:53;7;7;
73917;PMS5003;63639;52.280;5.162;2023-02-28T02:06:22;8;5;
73917;PMS5003;63639;52.280;5.162;2023-02-28T02:08:50;9;7;
73917;PMS5003;63639;52.280;5.162;2023-02-28T02:11:18;8;8;
73917;PMS5003;63639;52.280;5.162;2023-02-28T02:13:52;7;7;
73917;PMS5003;63639;52.280;5.162;2023-02-28T02:16:33;10;8;
73917;PMS5003;63639;52.280;5.162;2023-02-28T02:19:11;9;9;
73917;PMS5003;63639;52.280;5.162;2023-02-28T02:21:56;9;7;
73917;PMS5003;63639;52.280;5.162;2023-02-28T02:24:48;9;7;
73917;PMS5003;63639;52.280;5.162;2023-02-28T02:27:39;9;9;
73917;PMS5003;63639;52.280;5.162;2023-02-28T02:30:01;9;9;
73917;PMS5003;63639;52.280;5.162;2023-02-28T02:33:06;7;5;
73917;PMS5003;63639;52.280;5.162;2023-02-28T02:35:49;8;7;
73917;PMS5003;63639;52.280;5.162;2023-02-28T02:38:23;7;5;
73917;PMS5003;63639;52.280;5.162;2023-02-28T02:40:59;10;7;
73917;PMS5003;63639;52.280;5.162;2023-02-28T02:43:35;9;8;
73917;PMS5003;63639;52.280;5.162;2023-02-28T02:46:08;7;7;
73917;PMS5003;63639;52.280;5.162;2023-02-28T02:48:40;7;5;
73917;PMS5003;63639;52.280;5.162;2023-02-28T02:51:10;9;7;
73917;PMS5003;63639;52.280;5.162;2023-02-28T02:53:41;9;8;
73917;PMS5003;63639;52.280;5.162;2023-02-28T02:56:12;9;8;
73917;PMS5003;63639;52.280;5.162;2023-02-28T02:58:41;11;8;
73917;PMS5003;63639;52.280;5.162;2023-02-28T03:01:10;9;7;
73917;PMS5003;63639;52.280;5.162;2023-02-28T03:03:41;9;9;
73917;PMS5003;63639;52.280;5.162;2023-02-28T03:06:09;9;9;
73917;PMS5003;63639;52.280;5.162;2023-02-28T03:08:37;7;7;
73917;PMS5003;63639;52.280;5.162;2023-02-28T03:11:05;10;10;
73917;PMS5003;63639;52.280;5.162;2023-02-28T03:13:38;7;7;
73917;PMS5003;63639;52.280;5.162;2023-02-28T03:14:46;7;7;
73917;PMS5003;63639;52.280;5.162;2023-02-28T03:17:25;7;7;
73917;PMS5003;63639;52.280;5.162;2023-02-28T03:20:04;10;9;
73917;PMS5003;63639;52.280;5.162;2023-02-28T03:22:45;8;8;
73917;PMS5003;63639;52.280;5.162;2023-02-28T03:25:18;9;7;
73917;PMS5003;63639;52.280;5.162;2023-02-28T03:27:54;9;8;
73917;PMS5003;63639;52.280;5.162;2023-02-28T03:30:27;8;8;
73917;PMS5003;63639;52.280;5.162;2023-02-28T03:33:02;9;9;
73917;PMS5003;63639;52.280;5.162;2023-02-28T03:35:34;9;8;
73917;PMS5003;63639;52.280;5.162;2023-02-28T03:38:06;9;9;
73917;PMS5003;63639;52.280;5.162;2023-02-28T03:40:37;10;9;
73917;PMS5003;63639;52.280;5.162;2023-02-28T03:43:07;12;11;
73917;PMS5003;63639;52.280;5.162;2023-02-28T03:45:38;7;7;
73917;PMS5003;63639;52.280;5.162;2023-02-28T03:48:08;8;8;
73917;PMS5003;63639;52.280;5.162;2023-02-28T03:50:40;8;8;
73917;PMS5003;63639;52.280;5.162;2023-02-28T03:53:10;12;11;
73917;PMS5003;63639;52.280;5.162;2023-02-28T03:55:42;9;9;
73917;PMS5003;63639;52.280;5.162;2023-02-28T03:58:12;10;10;
73917;PMS5003;63639;52.280;5.162;2023-02-28T04:00:46;10;10;
73917;PMS5003;63639;52.280;5.162;2023-02-28T04:03:16;9;9;
73917;PMS5003;63639;52.280;5.162;2023-02-28T04:05:45;11;11;
73917;PMS5003;63639;52.280;5.162;2023-02-28T04:08:16;12;11;
73917;PMS5003;63639;52.280;5.162;2023-02-28T04:10:43;11;11;
73917;PMS5003;63639;52.280;5.162;2023-02-28T04:13:24;11;10;
73917;PMS5003;63639;52.280;5.162;2023-02-28T04:15:51;10;10;
73917;PMS5003;63639;52.280;5.162;2023-02-28T04:18:18;17;14;
73917;PMS5003;63639;52.280;5.162;2023-02-28T04:20:45;10;10;
73917;PMS5003;63639;52.280;5.162;2023-02-28T04:23:12;15;14;
73917;PMS5003;63639;52.280;5.162;2023-02-28T04:25:39;11;10;
73917;PMS5003;63639;52.280;5.162;2023-02-28T04:28:06;17;14;
73917;PMS5003;63639;52.280;5.162;2023-02-28T04:30:33;12;12;
73917;PMS5003;63639;52.280;5.162;2023-02-28T04:33:00;11;10;
73917;PMS5003;63639;52.280;5.162;2023-02-28T04:35:27;13;11;
73917;PMS5003;63639;52.280;5.162;2023-02-28T04:37:54;13;13;
73917;PMS5003;63639;52.280;5.162;2023-02-28T04:40:21;20;15;
73917;PMS5003;63639;52.280;5.162;2023-02-28T04:42:47;15;15;
73917;PMS5003;63639;52.280;5.162;2023-02-28T04:45:14;15;15;
73917;PMS5003;63639;52.280;5.162;2023-02-28T04:47:41;21;19;
73917;PMS5003;63639;52.280;5.162;2023-02-28T04:50:08;17;15;
73917;PMS5003;63639;52.280;5.162;2023-02-28T04:52:35;17;16;
73917;PMS5003;63639;52.280;5.162;2023-02-28T04:55:02;17;16;
73917;PMS5003;63639;52.280;5.162;2023-02-28T04:57:30;19;15;
73917;PMS5003;63639;52.280;5.162;2023-02-28T04:59:57;16;16;
73917;PMS5003;63639;52.280;5.162;2023-02-28T05:02:24;20;19;
73917;PMS5003;63639;52.280;5.162;2023-02-28T05:04:51;23;21;
73917;PMS5003;63639;52.280;5.162;2023-02-28T05:07:17;22;19;
73917;PMS5003;63639;52.280;5.162;2023-02-28T05:09:44;20;20;
73917;PMS5003;63639;52.280;5.162;2023-02-28T05:12:11;27;25;
73917;PMS5003;63639;52.280;5.162;2023-02-28T05:14:38;28;26;
73917;PMS5003;63639;52.280;5.162;2023-02-28T05:17:05;23;22;
73917;PMS5003;63639;52.280;5.162;2023-02-28T05:19:32;21;17;
73917;PMS5003;63639;52.280;5.162;2023-02-28T05:21:59;22;22;
73917;PMS5003;63639;52.280;5.162;2023-02-28T05:24:26;22;20;
73917;PMS5003;63639;52.280;5.162;2023-02-28T05:26:54;28;23;
73917;PMS5003;63639;52.280;5.162;2023-02-28T05:29:21;29;27;
73917;PMS5003;63639;52.280;5.162;2023-02-28T05:31:48;21;21;
73917;PMS5003;63639;52.280;5.162;2023-02-28T05:34:19;32;26;
73917;PMS5003;63639;52.280;5.162;2023-02-28T05:36:46;27;25;
73917;PMS5003;63639;52.280;5.162;2023-02-28T05:39:13;33;28;
73917;PMS5003;63639;52.280;5.162;2023-02-28T05:41:40;26;23;
73917;PMS5003;63639;52.280;5.162;2023-02-28T05:44:07;33;28;
73917;PMS5003;63639;52.280;5.162;2023-02-28T05:46:34;35;31;
73917;PMS5003;63639;52.280;5.162;2023-02-28T05:49:01;30;22;
73917;PMS5003;63639;52.280;5.162;2023-02-28T05:51:28;21;20;
73917;PMS5003;63639;52.280;5.162;2023-02-28T05:53:58;18;18;
73917;PMS5003;63639;52.280;5.162;2023-02-28T05:56:25;18;16;
73917;PMS5003;63639;52.280;5.162;2023-02-28T05:58:52;16;15;
73917;PMS5003;63639;52.280;5.162;2023-02-28T06:01:20;19;14;
73917;PMS5003;63639;52.280;5.162;2023-02-28T06:03:49;15;15;
73917;PMS5003;63639;52.280;5.162;2023-02-28T06:06:16;14;14;
73917;PMS5003;63639;52.280;5.162;2023-02-28T06:08:43;14;14;
73917;PMS5003;63639;52.280;5.162;2023-02-28T06:11:10;15;13;
73917;PMS5003;63639;52.280;5.162;2023-02-28T06:13:37;14;14;
73917;PMS5003;63639;52.280;5.162;2023-02-28T06:16:04;14;13;
73917;PMS5003;63639;52.280;5.162;2023-02-28T06:18:31;13;12;
73917;PMS5003;63639;52.280;5.162;2023-02-28T06:20:59;10;10;
73917;PMS5003;63639;52.280;5.162;2023-02-28T06:23:26;14;13;
73917;PMS5003;63639;52.280;5.162;2023-02-28T06:25:52;18;10;
73917;PMS5003;63639;52.280;5.162;2023-02-28T06:28:19;14;14;
73917;PMS5003;63639;52.280;5.162;2023-02-28T06:30:46;14;14;
73917;PMS5003;63639;52.280;5.162;2023-02-28T06:33:13;17;13;
73917;PMS5003;63639;52.280;5.162;2023-02-28T06:35:43;13;13;
73917;PMS5003;63639;52.280;5.162;2023-02-28T06:38:10;14;14;
73917;PMS5003;63639;52.280;5.162;2023-02-28T06:40:37;18;15;
73917;PMS5003;63639;52.280;5.162;2023-02-28T06:43:04;17;15;
73917;PMS5003;63639;52.280;5.162;2023-02-28T06:45:31;18;15;
73917;PMS5003;63639;52.280;5.162;2023-02-28T06:47:58;14;13;
73917;PMS5003;63639;52.280;5.162;2023-02-28T06:50:24;12;12;
73917;PMS5003;63639;52.280;5.162;2023-02-28T06:52:51;13;13;
73917;PMS5003;63639;52.280;5.162;2023-02-28T06:55:18;12;12;
73917;PMS5003;63639;52.280;5.162;2023-02-28T06:57:45;13;12;
73917;PMS5003;63639;52.280;5.162;2023-02-28T07:00:13;13;12;
73917;PMS5003;63639;52.280;5.162;2023-02-28T07:02:40;19;16;
73917;PMS5003;63639;52.280;5.162;2023-02-28T07:05:07;13;13;
73917;PMS5003;63639;52.280;5.162;2023-02-28T07:07:34;12;12;
73917;PMS5003;63639;52.280;5.162;2023-02-28T07:10:01;19;13;
73917;PMS5003;63639;52.280;5.162;2023-02-28T07:12:27;14;14;
73917;PMS5003;63639;52.280;5.162;2023-02-28T07:14:54;16;16;
73917;PMS5003;63639;52.280;5.162;2023-02-28T07:17:21;15;15;
73917;PMS5003;63639;52.280;5.162;2023-02-28T07:19:48;14;13;
73917;PMS5003;63639;52.280;5.162;2023-02-28T07:22:16;13;12;
73917;PMS5003;63639;52.280;5.162;2023-02-28T07:24:42;14;14;
73917;PMS5003;63639;52.280;5.162;2023-02-28T07:27:09;17;15;
73917;PMS5003;63639;52.280;5.162;2023-02-28T07:29:36;14;13;
73917;PMS5003;63639;52.280;5.162;2023-02-28T07:32:04;15;15;
73917;PMS5003;63639;52.280;5.162;2023-02-28T07:34:31;14;14;
73917;PMS5003;63639;52.280;5.162;2023-02-28T07:36:58;14;13;
73917;PMS5003;63639;52.280;5.162;2023-02-28T07:39:25;18;18;
73917;PMS5003;63639;52.280;5.162;2023-02-28T07:41:52;18;18;
73917;PMS5003;63639;52.280;5.162;2023-02-28T07:44:19;23;22;
73917;PMS5003;63639;52.280;5.162;2023-02-28T07:46:47;18;17;
73917;PMS5003;63639;52.280;5.162;2023-02-28T07:49:14;23;19;
73917;PMS5003;63639;52.280;5.162;2023-02-28T07:51:41;20;19;
73917;PMS5003;63639;52.280;5.162;2023-02-28T07:54:09;48;39;
73917;PMS5003;63639;52.280;5.162;2023-02-28T07:56:40;20;20;
73917;PMS5003;63639;52.280;5.162;2023-02-28T07:59:07;17;17;
73917;PMS5003;63639;52.280;5.162;2023-02-28T08:01:34;21;19;
73917;PMS5003;63639;52.280;5.162;2023-02-28T08:04:01;18;18;
73917;PMS5003;63639;52.280;5.162;2023-02-28T08:06:28;20;20;
73917;PMS5003;63639;52.280;5.162;2023-02-28T08:08:54;19;17;
73917;PMS5003;63639;52.280;5.162;2023-02-28T08:11:21;19;18;
73917;PMS5003;63639;52.280;5.162;2023-02-28T08:13:49;20;19;
73917;PMS5003;63639;52.280;5.162;2023-02-28T08:16:16;21;20;
73917;PMS5003;63639;52.280;5.162;2023-02-28T08:18:43;19;16;
73917;PMS5003;63639;52.280;5.162;2023-02-28T08:21:09;16;14;
73917;PMS5003;63639;52.280;5.162;2023-02-28T08:23:36;19;19;
73917;PMS5003;63639;52.280;5.162;2023-02-28T08:26:03;21;19;
73917;PMS5003;63639;52.280;5.162;2023-02-28T08:28:30;27;26;
73917;PMS5003;63639;52.280;5.162;2023-02-28T08:30:58;30;25;
73917;PMS5003;63639;52.280;5.162;2023-02-28T08:33:25;20;20;
73917;PMS5003;63639;52.280;5.162;2023-02-28T08:35:54;18;18;
73917;PMS5003;63639;52.280;5.162;2023-02-28T08:38:21;22;22;
73917;PMS5003;63639;52.280;5.162;2023-02-28T08:40:48;24;22;
73917;PMS5003;63639;52.280;5.162;2023-02-28T08:43:15;26;25;
73917;PMS5003;63639;52.280;5.162;2023-02-28T08:45:42;22;21;
73917;PMS5003;63639;52.280;5.162;2023-02-28T08:48:08;18;18;
73917;PMS5003;63639;52.280;5.162;2023-02-28T08:50:35;19;19;
73917;PMS5003;63639;52.280;5.162;2023-02-28T08:53:02;18;18;
73917;PMS5003;63639;52.280;5.162;2023-02-28T08:55:29;21;21;
73917;PMS5003;63639;52.280;5.162;2023-02-28T08:57:55;22;20;
73917;PMS5003;63639;52.280;5.162;2023-02-28T09:00:22;20;19;
73917;PMS5003;63639;52.280;5.162;2023-02-28T09:02:50;22;22;
73917;PMS5003;63639;52.280;5.162;2023-02-28T09:05:16;19;19;
73917;PMS5003;63639;52.280;5.162;2023-02-28T09:07:43;19;19;
73917;PMS5003;63639;52.280;5.162;2023-02-28T09:10:10;20;17;
73917;PMS5003;63639;52.280;5.162;2023-02-28T09:12:37;17;17;
73917;PMS5003;63639;52.280;5.162;2023-02-28T09:15:05;21;18;
73917;PMS5003;63639;52.280;5.162;2023-02-28T09:17:33;16;16;
73917;PMS5003;63639;52.280;5.162;2023-02-28T09:19:59;18;15;
73917;PMS5003;63639;52.280;5.162;2023-02-28T09:22:26;14;14;
73917;PMS5003;63639;52.280;5.162;2023-02-28T09:24:54;19;19;
73917;PMS5003;63639;52.280;5.162;2023-02-28T09:27:20;15;14;
73917;PMS5003;63639;52.280;5.162;2023-02-28T09:29:47;19;16;
73917;PMS5003;63639;52.280;5.162;2023-02-28T09:32:14;17;16;
73917;PMS5003;63639;52.280;5.162;2023-02-28T09:34:41;17;16;
73917;PMS5003;63639;52.280;5.162;2023-02-28T09:37:07;15;14;
73917;PMS5003;63639;52.280;5.162;2023-02-28T09:39:34;17;16;
73917;PMS5003;63639;52.280;5.162;2023-02-28T09:42:01;16;16;
73917;PMS5003;63639;52.280;5.162;2023-02-28T09:44:30;17;16;
73917;PMS5003;63639;52.280;5.162;2023-02-28T09:47:08;13;13;
73917;PMS5003;63639;52.280;5.162;2023-02-28T09:49:40;16;15;
73917;PMS5003;63639;52.280;5.162;2023-02-28T09:52:10;20;17;
73917;PMS5003;63639;52.280;5.162;2023-02-28T09:54:40;14;14;
73917;PMS5003;63639;52.280;5.162;2023-02-28T09:57:08;15;15;
73917;PMS5003;63639;52.280;5.162;2023-02-28T09:59:44;19;17;
73917;PMS5003;63639;52.280;5.162;2023-02-28T10:02:29;19;19;
73917;PMS5003;63639;52.280;5.162;2023-02-28T10:05:27;14;14;
73917;PMS5003;63639;52.280;5.162;2023-02-28T10:08:00;15;15;
73917;PMS5003;63639;52.280;5.162;2023-02-28T10:10:33;13;13;
73917;PMS5003;63639;52.280;5.162;2023-02-28T10:13:04;14;14;
73917;PMS5003;63639;52.280;5.162;2023-02-28T10:15:33;15;15;
73917;PMS5003;63639;52.280;5.162;2023-02-28T10:18:02;14;14;
73917;PMS5003;63639;52.280;5.162;2023-02-28T10:20:40;16;15;
73917;PMS5003;63639;52.280;5.162;2023-02-28T10:23:11;18;14;
73917;PMS5003;63639;52.280;5.162;2023-02-28T10:25:44;10;10;
73917;PMS5003;63639;52.280;5.162;2023-02-28T10:28:15;15;15;
73917;PMS5003;63639;52.280;5.162;2023-02-28T10:30:43;15;15;
73917;PMS5003;63639;52.280;5.162;2023-02-28T10:33:16;12;10;
73917;PMS5003;63639;52.280;5.162;2023-02-28T10:35:48;12;10;
73917;PMS5003;63639;52.280;5.162;2023-02-28T10:38:16;15;12;
73917;PMS5003;63639;52.280;5.162;2023-02-28T10:40:45;11;11;
73917;PMS5003;63639;52.280;5.162;2023-02-28T10:43:20;10;10;
73917;PMS5003;63639;52.280;5.162;2023-02-28T10:45:52;11;11;
73917;PMS5003;63639;52.280;5.162;2023-02-28T10:48:27;12;10;
73917;PMS5003;63639;52.280;5.162;2023-02-28T10:50:58;15;15;
73917;PMS5003;63639;52.280;5.162;2023-02-28T10:53:31;13;13;
73917;PMS5003;63639;52.280;5.162;2023-02-28T10:56:01;10;10;
73917;PMS5003;63639;52.280;5.162;2023-02-28T10:58:31;11;11;
73917;PMS5003;63639;52.280;5.162;2023-02-28T11:01:12;14;12;
73917;PMS5003;63639;52.280;5.162;2023-02-28T11:03:40;11;11;
73917;PMS5003;63639;52.280;5.162;2023-02-28T11:06:08;10;10;
73917;PMS5003;63639;52.280;5.162;2023-02-28T11:08:46;6;6;
73917;PMS5003;63639;52.280;5.162;2023-02-28T11:11:15;8;8;
73917;PMS5003;63639;52.280;5.162;2023-02-28T11:13:42;9;9;
73917;PMS5003;63639;52.280;5.162;2023-02-28T11:16:11;8;8;
73917;PMS5003;63639;52.280;5.162;2023-02-28T11:18:40;10;10;
73917;PMS5003;63639;52.280;5.162;2023-02-28T11:21:10;9;9;
73917;PMS5003;63639;52.280;5.162;2023-02-28T11:23:44;6;6;
73917;PMS5003;63639;52.280;5.162;2023-02-28T11:26:34;10;10;
73917;PMS5003;63639;52.280;5.162;2023-02-28T11:29:09;10;10;
73917;PMS5003;63639;52.280;5.162;2023-02-28T11:31:42;10;10;
73917;PMS5003;63639;52.280;5.162;2023-02-28T11:34:25;8;8;
73917;PMS5003;63639;52.280;5.162;2023-02-28T11:36:54;8;8;
73917;PMS5003;63639;52.280;5.162;2023-02-28T11:39:23;10;8;
73917;PMS5003;63639;52.280;5.162;2023-02-28T11:41:55;8;8;
73917;PMS5003;63639;52.280;5.162;2023-02-28T11:44:36;5;5;
73917;PMS5003;63639;52.280;5.162;2023-02-28T11:47:15;7;7;
73917;PMS5003;63639;52.280;5.162;2023-02-28T11:49:50;6;6;
73917;PMS5003;63639;52.280;5.162;2023-02-28T11:52:29;9;8;
73917;PMS5003;63639;52.280;5.162;2023-02-28T11:55:08;9;8;
73917;PMS5003;63639;52.280;5.162;2023-02-28T11:57:49;12;9;
73917;PMS5003;63639;52.280;5.162;2023-02-28T12:00:28;8;8;
73917;PMS5003;63639;52.280;5.162;2023-02-28T12:03:07;9;9;
73917;PMS5003;63639;52.280;5.162;2023-02-28T12:05:44;10;10;
73917;PMS5003;63639;52.280;5.162;2023-02-28T12:08:21;10;10;
73917;PMS5003;63639;52.280;5.162;2023-02-28T12:10:59;10;10;
73917;PMS5003;63639;52.280;5.162;2023-02-28T12:13:41;8;8;
73917;PMS5003;63639;52.280;5.162;2023-02-28T12:16:26;7;7;
73917;PMS5003;63639;52.280;5.162;2023-02-28T12:19:07;9;9;
73917;PMS5003;63639;52.280;5.162;2023-02-28T12:21:48;13;13;
73917;PMS5003;63639;52.280;5.162;2023-02-28T12:24:29;8;8;
73917;PMS5003;63639;52.280;5.162;2023-02-28T12:27:09;10;10;
73917;PMS5003;63639;52.280;5.162;2023-02-28T12:29:42;10;10;
73917;PMS5003;63639;52.280;5.162;2023-02-28T12:32:14;8;8;
73917;PMS5003;63639;52.280;5.162;2023-02-28T12:34:47;9;8;
73917;PMS5003;63639;52.280;5.162;2023-02-28T12:37:16;11;10;
73917;PMS5003;63639;52.280;5.162;2023-02-28T12:39:49;8;8;
73917;PMS5003;63639;52.280;5.162;2023-02-28T12:42:23;9;9;
73917;PMS5003;63639;52.280;5.162;2023-02-28T12:44:56;9;9;
73917;PMS5003;63639;52.280;5.162;2023-02-28T12:47:26;10;9;
73917;PMS5003;63639;52.280;5.162;2023-02-28T12:49:54;10;9;
73917;PMS5003;63639;52.280;5.162;2023-02-28T12:52:35;9;9;
73917;PMS5003;63639;52.280;5.162;2023-02-28T12:55:12;8;8;
73917;PMS5003;63639;52.280;5.162;2023-02-28T12:57:47;7;7;
73917;PMS5003;63639;52.280;5.162;2023-02-28T13:00:23;10;9;
73917;PMS5003;63639;52.280;5.162;2023-02-28T13:03:01;7;7;
73917;PMS5003;63639;52.280;5.162;2023-02-28T13:06:22;8;7;
73917;PMS5003;63639;52.280;5.162;2023-02-28T13:09:10;9;8;
73917;PMS5003;63639;52.280;5.162;2023-02-28T13:11:39;11;10;
73917;PMS5003;63639;52.280;5.162;2023-02-28T13:14:16;10;10;
73917;PMS5003;63639;52.280;5.162;2023-02-28T13:16:48;12;9;
73917;PMS5003;63639;52.280;5.162;2023-02-28T13:19:21;8;8;
73917;PMS5003;63639;52.280;5.162;2023-02-28T13:21:51;10;8;
73917;PMS5003;63639;52.280;5.162;2023-02-28T13:24:51;10;10;
73917;PMS5003;63639;52.280;5.162;2023-02-28T13:27:22;8;8;
73917;PMS5003;63639;52.280;5.162;2023-02-28T13:29:51;8;8;
73917;PMS5003;63639;52.280;5.162;2023-02-28T13:32:19;7;7;
73917;PMS5003;63639;52.280;5.162;2023-02-28T13:35:12;6;6;
73917;PMS5003;63639;52.280;5.162;2023-02-28T13:38:12;7;7;
73917;PMS5003;63639;52.280;5.162;2023-02-28T13:40:43;8;6;
73917;PMS5003;63639;52.280;5.162;2023-02-28T13:43:10;7;7;
73917;PMS5003;63639;52.280;5.162;2023-02-28T13:45:37;7;7;
73917;PMS5003;63639;52.280;5.162;2023-02-28T13:48:04;7;7;
73917;PMS5003;63639;52.280;5.162;2023-02-28T13:50:42;7;7;
73917;PMS5003;63639;52.280;5.162;2023-02-28T13:53:22;6;6;
73917;PMS5003;63639;52.280;5.162;2023-02-28T13:56:09;10;9;
73917;PMS5003;63639;52.280;5.162;2023-02-28T13:58:51;6;6;
73917;PMS5003;63639;52.280;5.162;2023-02-28T14:01:27;8;7;
73917;PMS5003;63639;52.280;5.162;2023-02-28T14:04:09;7;7;
73917;PMS5003;63639;52.280;5.162;2023-02-28T14:07:01;6;6;
73917;PMS5003;63639;52.280;5.162;2023-02-28T14:09:30;8;7;
73917;PMS5003;63639;52.280;5.162;2023-02-28T14:12:49;9;9;
73917;PMS5003;63639;52.280;5.162;2023-02-28T14:15:27;8;8;
73917;PMS5003;63639;52.280;5.162;2023-02-28T14:18:05;8;8;
73917;PMS5003;63639;52.280;5.162;2023-02-28T14:20:41;7;7;
73917;PMS5003;63639;52.280;5.162;2023-02-28T14:23:12;5;5;
73917;PMS5003;63639;52.280;5.162;2023-02-28T14:25:47;9;9;
73917;PMS5003;63639;52.280;5.162;2023-02-28T14:28:25;9;9;
73917;PMS5003;63639;52.280;5.162;2023-02-28T14:31:09;9;9;
73917;PMS5003;63639;52.280;5.162;2023-02-28T14:33:42;8;8;
73917;PMS5003;63639;52.280;5.162;2023-02-28T14:36:21;8;8;
73917;PMS5003;63639;52.280;5.162;2023-02-28T14:38:53;6;6;
73917;PMS5003;63639;52.280;5.162;2023-02-28T14:41:23;6;6;
73917;PMS5003;63639;52.280;5.162;2023-02-28T14:43:55;9;7;
73917;PMS5003;63639;52.280;5.162;2023-02-28T14:46:25;7;7;
73917;PMS5003;63639;52.280;5.162;2023-02-28T14:48:59;8;8;
73917;PMS5003;63639;52.280;5.162;2023-02-28T14:51:26;9;8;
73917;PMS5003;63639;52.280;5.162;2023-02-28T14:53:56;9;9;
73917;PMS5003;63639;52.280;5.162;2023-02-28T14:56:26;11;9;
73917;PMS5003;63639;52.280;5.162;2023-02-28T14:58:56;11;8;
73917;PMS5003;63639;52.280;5.162;2023-02-28T15:01:24;8;8;
73917;PMS5003;63639;52.280;5.162;2023-02-28T15:04:00;11;8;
73917;PMS5003;63639;52.280;5.162;2023-02-28T15:06:28;10;10;
73917;PMS5003;63639;52.280;5.162;2023-02-28T15:09:14;7;7;
73917;PMS5003;63639;52.280;5.162;2023-02-28T15:11:45;8;7;
73917;PMS5003;63639;52.280;5.162;2023-02-28T15:14:15;8;8;
73917;PMS5003;63639;52.280;5.162;2023-02-28T15:16:45;9;9;
73917;PMS5003;63639;52.280;5.162;2023-02-28T15:19:17;10;9;
73917;PMS5003;63639;52.280;5.162;2023-02-28T15:21:48;16;13;
73917;PMS5003;63639;52.280;5.162;2023-02-28T15:24:17;12;12;
73917;PMS5003;63639;52.280;5.162;2023-02-28T15:26:48;10;10;
73917;PMS5003;63639;52.280;5.162;2023-02-28T15:29:20;13;11;
73917;PMS5003;63639;52.280;5.162;2023-02-28T15:31:50;11;11;
73917;PMS5003;63639;52.280;5.162;2023-02-28T15:34:18;12;12;
73917;PMS5003;63639;52.280;5.162;2023-02-28T15:36:47;16;13;
73917;PMS5003;63639;52.280;5.162;2023-02-28T15:39:18;13;12;
73917;PMS5003;63639;52.280;5.162;2023-02-28T15:41:47;11;10;
73917;PMS5003;63639;52.280;5.162;2023-02-28T15:44:15;11;10;
73917;PMS5003;63639;52.280;5.162;2023-02-28T15:46:53;10;10;
73917;PMS5003;63639;52.280;5.162;2023-02-28T15:49:22;12;12;
73917;PMS5003;63639;52.280;5.162;2023-02-28T15:51:49;15;14;
73917;PMS5003;63639;52.280;5.162;2023-02-28T15:54:19;12;11;
73917;PMS5003;63639;52.280;5.162;2023-02-28T15:56:50;10;10;
73917;PMS5003;63639;52.280;5.162;2023-02-28T15:59:19;10;9;
73917;PMS5003;63639;52.280;5.162;2023-02-28T16:02:01;10;10;
73917;PMS5003;63639;52.280;5.162;2023-02-28T16:04:53;13;10;
73917;PMS5003;63639;52.280;5.162;2023-02-28T16:07:21;12;12;
73917;PMS5003;63639;52.280;5.162;2023-02-28T16:09:48;8;8;
73917;PMS5003;63639;52.280;5.162;2023-02-28T16:12:14;10;8;
73917;PMS5003;63639;52.280;5.162;2023-02-28T16:14:41;10;9;
73917;PMS5003;63639;52.280;5.162;2023-02-28T16:17:16;9;9;
73917;PMS5003;63639;52.280;5.162;2023-02-28T16:19:46;12;12;
73917;PMS5003;63639;52.280;5.162;2023-02-28T16:22:13;12;11;
73917;PMS5003;63639;52.280;5.162;2023-02-28T16:24:40;10;10;
73917;PMS5003;63639;52.280;5.162;2023-02-28T16:27:09;12;11;
73917;PMS5003;63639;52.280;5.162;2023-02-28T16:29:43;8;8;
73917;PMS5003;63639;52.280;5.162;2023-02-28T16:32:12;11;10;
73917;PMS5003;63639;52.280;5.162;2023-02-28T16:34:42;14;12;
73917;PMS5003;63639;52.280;5.162;2023-02-28T16:37:11;12;12;
73917;PMS5003;63639;52.280;5.162;2023-02-28T16:39:40;13;12;
73917;PMS5003;63639;52.280;5.162;2023-02-28T16:42:10;12;10;
73917;PMS5003;63639;52.280;5.162;2023-02-28T16:44:42;10;10;
73917;PMS5003;63639;52.280;5.162;2023-02-28T16:47:10;12;11;
73917;PMS5003;63639;52.280;5.162;2023-02-28T16:49:37;14;11;
73917;PMS5003;63639;52.280;5.162;2023-02-28T16:52:04;13;11;
73917;PMS5003;63639;52.280;5.162;2023-02-28T16:54:31;13;12;